Time;durP1;ratioP1;P1;durP2;ratioP2;P2;SDS_P1;SDS_P2;PMS_P1;PMS_P2;Temp;Humidity;BMP_temperature;BMP_pressure;BME280_temperature;BME280_humidity;BME280_pressure;Samples;Min_cycle;Max_cycle;Signal;HPM_P1;HPM_P2
2023/07/18 00:00:30;;;;;;;5.28;0.85;;;;;;;14.49;100.00;100707.75;5052269;28;20058;-76
2023/07/18 00:02:56;;;;;;;3.25;0.68;;;;;;;14.47;100.00;100707.91;5079315;28;20082;-78
2023/07/18 00:05:22;;;;;;;4.35;0.73;;;;;;;14.47;100.00;100694.59;5050579;28;20036;-80
2023/07/18 00:07:48;;;;;;;4.80;0.50;;;;;;;14.46;100.00;100697.44;5045659;28;20485;-79
2023/07/18 00:10:18;;;;;;;3.10;0.70;;;;;;;14.48;100.00;100698.06;5067735;28;20078;-79
2023/07/18 00:12:44;;;;;;;3.10;0.70;;;;;;;14.47;100.00;100691.94;5080087;28;20052;-80
2023/07/18 00:15:10;;;;;;;3.78;0.57;;;;;;;14.48;100.00;100690.94;5070752;28;20037;-79
2023/07/18 00:17:37;;;;;;;2.75;0.70;;;;;;;14.50;100.00;100688.94;5037652;28;20389;-80
2023/07/18 00:20:07;;;;;;;5.05;0.75;;;;;;;14.51;100.00;100679.97;5069124;28;20127;-80
2023/07/18 00:22:33;;;;;;;7.57;1.20;;;;;;;14.50;100.00;100680.13;5058177;28;20060;-80
2023/07/18 00:24:59;;;;;;;6.82;0.70;;;;;;;14.49;100.00;100679.28;5063953;28;20782;-81
2023/07/18 00:27:25;;;;;;;3.80;0.70;;;;;;;14.47;100.00;100680.47;5024663;28;20035;-80
2023/07/18 00:29:51;;;;;;;4.43;0.55;;;;;;;14.44;100.00;100678.97;5055008;28;22166;-80
2023/07/18 00:32:17;;;;;;;3.50;0.65;;;;;;;14.40;100.00;100677.63;5029192;28;20075;-80
2023/07/18 00:38:59;;;;;;;5.75;0.85;;;;;;;14.45;100.00;100669.16;5065813;28;20496;-80
2023/07/18 00:41:24;;;;;;;5.07;1.10;;;;;;;14.45;100.00;100664.66;5036489;28;20029;-79
2023/07/18 00:43:50;;;;;;;6.95;2.05;;;;;;;14.46;100.00;100660.19;5068865;28;20046;-80
2023/07/18 00:46:17;;;;;;;7.05;0.70;;;;;;;14.48;100.00;100659.03;5069225;28;20104;-79
2023/07/18 00:48:43;;;;;;;4.82;0.85;;;;;;;14.51;100.00;100660.50;5032186;28;20470;-78
2023/07/18 00:51:09;;;;;;;5.25;0.70;;;;;;;14.51;100.00;100666.66;5039987;28;20025;-78
2023/07/18 00:53:37;;;;;;;5.47;1.35;;;;;;;14.57;100.00;100661.69;5085902;28;20039;-79
2023/07/18 00:56:04;;;;;;;1.98;0.50;;;;;;;14.53;100.00;100655.88;5040635;28;20029;-79
2023/07/18 00:58:31;;;;;;;3.33;1.05;;;;;;;14.46;100.00;100661.00;5061157;28;20051;-79
2023/07/18 01:00:59;;;;;;;8.18;1.10;;;;;;;14.41;100.00;100660.69;5065272;28;20036;-79
2023/07/18 01:03:25;;;;;;;5.55;1.05;;;;;;;14.39;100.00;100652.88;5068237;28;20492;-77
2023/07/18 01:05:51;;;;;;;4.30;0.85;;;;;;;14.36;100.00;100649.72;5060400;28;20036;-78
2023/07/18 01:08:16;;;;;;;3.22;0.73;;;;;;;14.33;100.00;100650.03;5037159;28;20036;-79
2023/07/18 01:10:42;;;;;;;4.53;0.70;;;;;;;14.32;100.00;100653.66;5069674;28;20043;-80
2023/07/18 01:13:08;;;;;;;2.53;0.90;;;;;;;14.28;100.00;100647.88;5046549;28;20032;-79
2023/07/18 01:15:34;;;;;;;5.97;0.82;;;;;;;14.21;100.00;100642.38;5050111;28;20478;-79
2023/07/18 01:18:08;;;;;;;2.53;0.77;;;;;;;14.20;100.00;100638.06;5041383;28;20105;-78
2023/07/18 01:20:36;;;;;;;4.05;0.90;;;;;;;14.13;100.00;100626.41;5049156;28;20621;-78
2023/07/18 01:23:05;;;;;;;5.72;1.63;;;;;;;14.12;100.00;100625.59;5059249;28;20515;-81
2023/07/18 01:25:33;;;;;;;9.68;0.93;;;;;;;14.08;100.00;100626.06;5031609;28;20036;-80
2023/07/18 01:28:00;;;;;;;2.10;0.60;;;;;;;14.13;100.00;100632.56;5057078;28;20035;-80
2023/07/18 01:30:28;;;;;;;5.20;0.73;;;;;;;14.14;100.00;100634.22;5065101;28;20037;-80
2023/07/18 01:32:54;;;;;;;4.53;0.60;;;;;;;14.13;100.00;100629.06;5047792;28;20048;-80
2023/07/18 01:35:25;;;;;;;4.38;0.50;;;;;;;14.16;100.00;100623.41;5046700;28;20036;-80
2023/07/18 01:37:53;;;;;;;5.80;0.80;;;;;;;14.18;100.00;100612.63;5017471;28;20097;-79
2023/07/18 01:40:20;;;;;;;3.45;0.60;;;;;;;14.05;100.00;100607.81;5065415;28;20044;-79
2023/07/18 01:42:51;;;;;;;5.00;1.02;;;;;;;13.93;100.00;100609.91;5026069;28;20031;-80
2023/07/18 01:45:25;;;;;;;3.95;0.70;;;;;;;13.85;100.00;100600.09;5048184;28;20492;-79
2023/07/18 01:47:52;;;;;;;3.22;0.73;;;;;;;13.73;100.00;100595.09;5066082;28;20116;-79
2023/07/18 01:50:18;;;;;;;2.92;0.85;;;;;;;13.66;100.00;100591.41;5065598;28;20041;-79
2023/07/18 01:52:46;;;;;;;5.15;0.95;;;;;;;13.55;100.00;100584.59;5049983;28;20086;-80
2023/07/18 01:55:12;;;;;;;5.60;0.90;;;;;;;13.51;100.00;100585.88;5049850;28;20033;-80
2023/07/18 01:57:40;;;;;;;5.93;1.50;;;;;;;13.44;100.00;100583.00;5019430;28;20518;-78
2023/07/18 02:00:11;;;;;;;3.80;0.93;;;;;;;13.35;100.00;100568.88;5067042;28;20638;-78
2023/07/18 02:02:41;;;;;;;4.28;0.82;;;;;;;13.28;100.00;100571.31;5063870;28;20052;-78
2023/07/18 02:05:08;;;;;;;2.72;0.70;;;;;;;13.27;100.00;100568.81;5054873;28;20392;-79
2023/07/18 02:07:34;;;;;;;4.82;0.90;;;;;;;13.31;100.00;100579.97;5077659;28;20033;-80
2023/07/18 02:10:01;;;;;;;3.97;0.80;;;;;;;13.31;100.00;100570.19;5038270;28;20142;-80
2023/07/18 02:12:29;;;;;;;5.63;0.70;;;;;;;13.31;100.00;100562.22;5023765;28;20032;-78
2023/07/18 02:14:55;;;;;;;5.80;0.75;;;;;;;13.33;100.00;100556.75;5059732;28;20040;-81
2023/07/18 02:17:21;;;;;;;3.17;0.52;;;;;;;13.39;100.00;100556.09;5067255;28;20077;-81
2023/07/18 02:19:47;;;;;;;4.15;0.60;;;;;;;13.45;100.00;100558.13;5043192;28;20449;-81
2023/07/18 02:22:13;;;;;;;5.05;0.70;;;;;;;13.45;100.00;100557.28;5021243;28;20164;-80
2023/07/18 02:24:41;;;;;;;2.53;0.68;;;;;;;13.46;100.00;100546.50;5038528;28;20047;-79
2023/07/18 02:27:07;;;;;;;2.75;0.70;;;;;;;13.53;100.00;100546.72;5010744;28;20128;-81
2023/07/18 02:29:33;;;;;;;0.98;0.40;;;;;;;13.49;100.00;100542.72;5092364;28;20040;-81
2023/07/18 02:32:00;;;;;;;4.22;0.75;;;;;;;13.45;100.00;100538.69;5020978;28;20058;-81
2023/07/18 02:34:25;;;;;;;5.32;0.93;;;;;;;13.38;100.00;100547.31;5053599;28;20439;-81
2023/07/18 02:36:52;;;;;;;6.45;0.90;;;;;;;13.39;100.00;100546.31;5067002;28;20025;-81
2023/07/18 02:39:19;;;;;;;5.18;0.63;;;;;;;13.44;100.00;100543.16;5035085;28;20040;-82
2023/07/18 02:41:44;;;;;;;4.95;0.52;;;;;;;13.45;100.00;100544.84;5074827;28;20111;-81
2023/07/18 02:44:11;;;;;;;4.57;0.50;;;;;;;13.43;100.00;100541.50;5071412;28;20052;-79
2023/07/18 02:46:37;;;;;;;3.72;0.70;;;;;;;13.39;100.00;100527.72;5023064;28;20032;-79
2023/07/18 02:49:03;;;;;;;3.72;0.70;;;;;;;13.42;100.00;100531.91;5056708;28;20481;-79
2023/07/18 02:51:29;;;;;;;1.50;0.47;;;;;;;13.43;100.00;100525.59;5058347;28;20043;-79
2023/07/18 02:53:55;;;;;;;3.72;0.70;;;;;;;13.43;100.00;100520.28;5085407;28;20036;-81
2023/07/18 02:56:21;;;;;;;3.53;0.90;;;;;;;13.38;100.00;100520.75;5045841;28;20075;-80
2023/07/18 02:58:48;;;;;;;5.78;0.75;;;;;;;13.44;100.00;100524.56;5057660;28;20477;-81
2023/07/18 03:01:14;;;;;;;3.65;0.50;;;;;;;13.41;100.00;100508.97;5074743;28;20052;-81
2023/07/18 03:03:40;;;;;;;1.52;0.40;;;;;;;13.34;100.00;100505.31;5063093;28;20543;-80
2023/07/18 03:06:09;;;;;;;4.05;0.60;;;;;;;13.34;100.00;100507.97;5036668;28;20040;-79
2023/07/18 03:08:36;;;;;;;3.90;0.90;;;;;;;13.27;100.00;100500.66;5033350;28;20029;-81
2023/07/18 03:11:05;;;;;;;2.80;0.70;;;;;;;13.25;100.00;100499.97;5050742;28;20120;-80
2023/07/18 03:13:31;;;;;;;6.53;1.05;;;;;;;13.25;100.00;100507.94;5033794;28;20025;-80
2023/07/18 03:15:57;;;;;;;3.28;0.60;;;;;;;13.24;100.00;100494.81;5064566;28;20036;-80
2023/07/18 03:18:24;;;;;;;1.92;0.70;;;;;;;13.25;100.00;100491.19;5057486;28;20025;-81
2023/07/18 03:20:51;;;;;;;5.25;0.60;;;;;;;13.17;100.00;100484.00;5062674;28;20053;-80
2023/07/18 03:23:16;;;;;;;3.42;0.63;;;;;;;13.16;100.00;100490.31;5065938;28;20417;-79
2023/07/18 03:25:42;;;;;;;1.63;0.68;;;;;;;13.12;100.00;100481.84;5051123;28;20083;-80
2023/07/18 03:28:09;;;;;;;2.13;0.65;;;;;;;13.17;100.00;100476.03;5016619;28;20037;-79
2023/07/18 03:30:35;;;;;;;3.45;0.65;;;;;;;13.18;100.00;100472.41;5047950;28;20489;-80
2023/07/18 03:33:01;;;;;;;3.63;0.80;;;;;;;13.19;100.00;100479.38;5051199;28;20032;-80
2023/07/18 03:35:27;;;;;;;5.28;0.90;;;;;;;13.21;100.00;100482.72;5054921;28;20032;-80
2023/07/18 03:37:56;;;;;;;4.00;1.45;;;;;;;13.24;100.00;100471.78;5066534;28;20050;-80
2023/07/18 03:40:22;;;;;;;5.18;0.73;;;;;;;13.26;100.00;100468.97;5075062;28;20036;-81
2023/07/18 03:42:47;;;;;;;4.07;0.60;;;;;;;13.26;100.00;100474.25;5065851;28;20036;-81
2023/07/18 03:45:14;;;;;;;2.45;0.55;;;;;;;13.30;100.00;100467.63;5076076;28;20514;-80
2023/07/18 03:47:40;;;;;;;4.88;0.90;;;;;;;13.27;100.00;100471.44;5064219;28;20040;-82
2023/07/18 03:50:09;;;;;;;2.38;0.50;;;;;;;13.28;100.00;100474.94;5062009;28;20661;-82
2023/07/18 03:52:35;;;;;;;4.68;0.50;;;;;;;13.26;100.00;100477.75;5072686;28;20147;-82
2023/07/18 03:55:03;;;;;;;2.70;0.50;;;;;;;13.33;100.00;100477.13;5050814;28;20166;-81
2023/07/18 03:57:31;;;;;;;5.63;0.77;;;;;;;13.36;100.00;100471.47;5023637;28;20345;-81
2023/07/18 03:59:57;;;;;;;4.80;0.57;;;;;;;13.35;100.00;100464.50;5024537;28;20048;-81
2023/07/18 04:02:23;;;;;;;3.67;0.70;;;;;;;13.33;100.00;100453.22;5067919;28;20031;-81
2023/07/18 04:04:49;;;;;;;4.53;0.68;;;;;;;13.29;100.00;100444.75;5051509;28;20020;-81
2023/07/18 04:07:15;;;;;;;1.83;0.68;;;;;;;13.28;100.00;100445.75;5061406;28;20124;-81
2023/07/18 04:09:40;;;;;;;4.65;0.63;;;;;;;13.27;100.00;100447.56;5074036;28;20108;-80
2023/07/18 04:12:07;;;;;;;1.45;0.40;;;;;;;13.30;100.00;100440.28;5069186;28;20060;-79
2023/07/18 04:14:35;;;;;;;2.90;0.77;;;;;;;13.26;100.00;100439.75;5067329;28;20086;-80
2023/07/18 04:17:01;;;;;;;4.60;0.80;;;;;;;13.20;100.00;100425.31;5053125;28;20090;-80
2023/07/18 04:19:29;;;;;;;4.20;0.90;;;;;;;13.18;100.00;100427.31;5064199;28;20028;-80
2023/07/18 04:21:55;;;;;;;2.65;0.63;;;;;;;13.13;100.00;100422.47;4969922;28;20123;-81
2023/07/18 04:24:21;;;;;;;7.10;0.98;;;;;;;13.15;100.00;100422.31;5068413;28;20032;-81
2023/07/18 04:26:47;;;;;;;8.75;0.90;;;;;;;13.11;100.00;100413.84;5046169;28;20118;-81
2023/07/18 04:29:13;;;;;;;3.17;0.60;;;;;;;13.06;100.00;100407.38;5068456;28;20036;-82
2023/07/18 04:31:39;;;;;;;2.72;0.70;;;;;;;13.08;100.00;100415.97;5067335;28;20028;-81
2023/07/18 04:34:04;;;;;;;2.35;0.55;;;;;;;13.07;100.00;100414.31;5082668;28;20449;-81
2023/07/18 04:36:30;;;;;;;3.55;0.60;;;;;;;13.09;100.00;100410.50;5066942;28;20040;-79
2023/07/18 04:38:56;;;;;;;4.30;0.45;;;;;;;13.08;100.00;100410.66;5069127;28;20032;-81
2023/07/18 04:41:22;;;;;;;4.03;0.73;;;;;;;13.11;100.00;100419.16;5034347;28;20097;-80
2023/07/18 04:43:47;;;;;;;4.57;0.68;;;;;;;13.17;100.00;100422.97;5069044;28;20025;-81
2023/07/18 04:46:13;;;;;;;2.35;0.80;;;;;;;13.20;100.00;100413.88;5066360;28;20060;-79
2023/07/18 04:48:40;;;;;;;5.07;1.13;;;;;;;13.22;100.00;100410.06;5021335;28;20037;-82
2023/07/18 04:51:06;;;;;;;4.07;0.55;;;;;;;13.23;100.00;100403.78;5058530;28;20087;-81
2023/07/18 04:53:32;;;;;;;7.28;0.88;;;;;;;13.24;100.00;100407.22;5053004;28;20025;-81
2023/07/18 04:55:59;;;;;;;5.97;1.08;;;;;;;13.23;100.00;100400.28;5051552;28;20055;-80
2023/07/18 04:58:27;;;;;;;7.53;0.80;;;;;;;13.22;100.00;100401.28;5035325;28;20392;-82
2023/07/18 05:00:55;;;;;;;5.40;0.82;;;;;;;13.22;100.00;100394.13;5066980;28;20432;-77
2023/07/18 05:03:21;;;;;;;2.15;0.43;;;;;;;13.22;100.00;100382.69;5063075;28;20043;-80
2023/07/18 05:05:47;;;;;;;2.80;0.60;;;;;;;13.17;100.00;100385.81;5018375;28;20119;-80
2023/07/18 05:08:13;;;;;;;2.63;0.75;;;;;;;13.17;100.00;100379.69;5059169;28;20401;-80
2023/07/18 05:10:40;;;;;;;2.85;0.70;;;;;;;13.15;100.00;100374.56;5047890;28;20028;-81
2023/07/18 05:13:07;;;;;;;4.28;0.50;;;;;;;13.17;100.00;100366.44;5067861;28;20028;-81
2023/07/18 05:15:33;;;;;;;3.40;1.15;;;;;;;13.15;100.00;100367.41;5047691;28;20472;-81
2023/07/18 05:17:59;;;;;;;3.28;0.50;;;;;;;13.15;100.00;100367.41;5054010;28;21073;-81
2023/07/18 05:20:25;;;;;;;5.65;0.70;;;;;;;13.24;100.00;100367.41;5062553;28;20075;-81
2023/07/18 05:22:51;;;;;;;2.72;0.52;;;;;;;13.26;100.00;100371.59;5066956;28;20041;-81
2023/07/18 05:25:17;;;;;;;5.43;0.88;;;;;;;13.26;100.00;100365.44;5064954;28;20036;-82
2023/07/18 05:27:43;;;;;;;4.97;0.70;;;;;;;13.23;100.00;100357.81;5043632;28;20039;-81
2023/07/18 05:30:17;;;;;;;5.28;0.80;;;;;;;13.25;100.00;100364.59;5081106;28;20332;-81
2023/07/18 05:32:45;;;;;;;3.50;0.60;;;;;;;13.27;100.00;100365.28;5033749;28;20546;-81
2023/07/18 05:35:13;;;;;;;18.60;0.98;;;;;;;13.26;100.00;100363.63;5068842;28;20036;-81
2023/07/18 05:37:40;;;;;;;4.40;0.50;;;;;;;13.26;100.00;100368.94;5053120;28;20028;-81
2023/07/18 05:40:09;;;;;;;3.90;0.90;;;;;;;13.26;100.00;100362.78;5038858;28;20569;-81
2023/07/18 05:42:44;;;;;;;6.95;0.75;;;;;;;13.25;100.00;100358.47;5076907;28;20028;-81
2023/07/18 05:45:10;;;;;;;4.55;0.47;;;;;;;13.22;100.00;100367.59;5052326;28;20041;-81
2023/07/18 05:47:37;;;;;;;3.15;0.55;;;;;;;13.27;100.00;100353.81;5034538;28;20037;-81
2023/07/18 05:50:04;;;;;;;1.80;0.38;;;;;;;13.28;100.00;100358.97;5050398;28;20044;-80
2023/07/18 05:52:30;;;;;;;4.55;1.42;;;;;;;13.29;100.00;100362.47;5034865;28;20054;-81
2023/07/18 05:54:56;;;;;;;3.97;0.60;;;;;;;13.32;100.00;100367.44;5087887;28;20028;-81
2023/07/18 05:57:22;;;;;;;6.40;0.70;;;;;;;13.35;100.00;100359.13;5028213;28;20032;-81
2023/07/18 05:59:48;;;;;;;2.70;0.93;;;;;;;13.35;100.00;100355.66;5050917;28;20033;-80
2023/07/18 06:02:15;;;;;;;4.57;0.50;;;;;;;13.35;100.00;100353.84;5072938;28;20127;-81
2023/07/18 06:04:40;;;;;;;1.70;0.35;;;;;;;13.33;100.00;100357.66;5073680;28;20033;-81
2023/07/18 06:07:06;;;;;;;2.15;0.40;;;;;;;13.28;100.00;100353.66;5073387;28;20526;-81
2023/07/18 06:09:32;;;;;;;1.08;0.30;;;;;;;13.25;100.00;100353.97;5030014;28;20029;-82
2023/07/18 06:11:58;;;;;;;1.13;0.30;;;;;;;13.24;100.00;100354.16;5055062;28;20024;-81
2023/07/18 06:14:25;;;;;;;1.75;0.20;;;;;;;13.28;100.00;100351.00;5072849;28;20037;-80
2023/07/18 06:16:50;;;;;;;0.50;0.20;;;;;;;13.28;100.00;100358.97;5053917;28;20040;-81
2023/07/18 06:19:16;;;;;;;2.88;0.40;;;;;;;13.29;100.00;100349.19;5022965;28;20033;-81
2023/07/18 06:21:42;;;;;;;0.32;0.20;;;;;;;13.25;100.00;100342.56;5055088;28;20040;-80
2023/07/18 06:24:08;;;;;;;1.48;0.35;;;;;;;13.23;100.00;100342.72;5080323;28;20082;-81
2023/07/18 06:26:34;;;;;;;0.98;0.30;;;;;;;13.26;100.00;100346.88;5067153;28;20048;-82
2023/07/18 06:29:00;;;;;;;1.48;0.28;;;;;;;13.20;100.00;100340.41;5054663;28;20036;-80
2023/07/18 06:31:28;;;;;;;2.80;0.50;;;;;;;13.19;100.00;100333.41;5048918;28;20036;-81
2023/07/18 06:33:54;;;;;;;1.58;0.40;;;;;;;13.12;100.00;100327.91;5080503;28;20036;-82
2023/07/18 06:36:21;;;;;;;2.03;0.22;;;;;;;13.14;100.00;100322.44;5054281;28;20036;-81
2023/07/18 06:38:47;;;;;;;3.67;0.35;;;;;;;13.11;100.00;100325.44;5054219;28;20086;-79
2023/07/18 06:41:12;;;;;;;2.03;0.35;;;;;;;13.07;100.00;100322.31;5048782;28;20036;-80
2023/07/18 06:43:39;;;;;;;1.05;0.40;;;;;;;13.06;100.00;100314.50;5056711;28;20048;-77
2023/07/18 06:46:05;;;;;;;4.15;0.38;;;;;;;13.06;100.00;100303.88;5061424;28;20036;-78
2023/07/18 06:48:31;;;;;;;0.77;0.20;;;;;;;13.03;100.00;100310.34;5053436;28;20087;-82
2023/07/18 06:50:59;;;;;;;1.35;0.30;;;;;;;13.06;100.00;100311.84;5075517;28;20488;-81
2023/07/18 06:53:25;;;;;;;1.15;0.30;;;;;;;13.04;100.00;100309.38;5031089;28;20059;-78
2023/07/18 06:55:51;;;;;;;0.77;0.30;;;;;;;13.03;100.00;100311.19;5085976;28;20484;-79
2023/07/18 06:58:18;;;;;;;2.47;0.30;;;;;;;13.07;100.00;100310.84;5070377;28;20039;-78
2023/07/18 07:00:45;;;;;;;2.90;0.32;;;;;;;13.09;100.00;100300.91;5068477;28;20044;-82
2023/07/18 07:03:11;;;;;;;3.53;0.20;;;;;;;13.07;100.00;100305.53;5053633;28;20036;-80
2023/07/18 07:05:38;;;;;;;3.05;0.38;;;;;;;13.05;100.00;100297.75;5035152;28;20039;-80
2023/07/18 07:08:08;;;;;;;3.33;0.52;;;;;;;13.06;100.00;100295.94;5054032;28;20063;-80
2023/07/18 07:10:35;;;;;;;1.17;0.32;;;;;;;13.06;100.00;100299.41;5079178;28;20043;-80
2023/07/18 07:13:01;;;;;;;1.52;0.30;;;;;;;13.10;100.00;100294.59;5077547;28;20036;-80
2023/07/18 07:15:27;;;;;;;2.13;0.47;;;;;;;13.08;100.00;100294.75;5037901;28;20474;-79
2023/07/18 07:17:53;;;;;;;3.42;0.43;;;;;;;13.11;100.00;100294.44;5070165;28;20039;-80
2023/07/18 07:20:19;;;;;;;4.07;0.45;;;;;;;13.15;100.00;100295.75;5052764;28;20485;-80
2023/07/18 07:22:47;;;;;;;1.88;0.40;;;;;;;13.18;100.00;100291.94;5071730;28;20518;-80
2023/07/18 07:25:16;;;;;;;2.70;0.32;;;;;;;13.21;100.00;100294.28;5049408;28;20036;-80
2023/07/18 07:27:44;;;;;;;1.85;0.35;;;;;;;13.21;100.00;100291.63;5070324;28;20116;-80
2023/07/18 07:30:16;;;;;;;3.80;0.80;;;;;;;13.24;100.00;100293.09;5071528;28;20032;-79
2023/07/18 07:32:48;;;;;;;2.08;0.50;;;;;;;13.26;100.00;100297.28;5068371;28;20041;-77
2023/07/18 07:35:22;;;;;;;1.45;0.43;;;;;;;13.24;100.00;100288.63;5040147;28;20033;-80
2023/07/18 07:37:50;;;;;;;1.23;0.60;;;;;;;13.26;100.00;100285.81;5045969;28;20043;-79
2023/07/18 07:40:17;;;;;;;1.13;0.30;;;;;;;13.27;100.00;100288.31;5051200;28;20039;-79
2023/07/18 07:42:44;;;;;;;2.80;0.52;;;;;;;13.31;100.00;100280.00;5047261;28;20039;-79
2023/07/18 07:45:11;;;;;;;1.75;0.40;;;;;;;13.34;100.00;100282.31;5062758;28;20039;-78
2023/07/18 07:47:37;;;;;;;3.08;0.45;;;;;;;13.37;100.00;100276.69;5068710;28;20046;-79
2023/07/18 07:50:04;;;;;;;1.08;0.40;;;;;;;13.43;100.00;100283.13;5069513;28;20496;-79
2023/07/18 07:52:30;;;;;;;1.13;0.30;;;;;;;13.48;100.00;100280.81;5062253;28;20063;-80
2023/07/18 07:54:57;;;;;;;1.70;0.40;;;;;;;13.48;100.00;100276.34;5049649;28;20037;-77
2023/07/18 07:57:23;;;;;;;0.85;0.30;;;;;;;13.51;100.00;100278.69;5030328;28;20029;-79
2023/07/18 07:59:50;;;;;;;3.63;0.38;;;;;;;13.51;100.00;100285.81;5049369;28;20052;-80
2023/07/18 08:02:19;;;;;;;1.25;0.40;;;;;;;13.56;100.00;100277.34;5035757;28;20131;-80
2023/07/18 08:04:46;;;;;;;1.75;0.40;;;;;;;13.58;100.00;100275.38;5053930;28;20063;-81
2023/07/18 08:07:12;;;;;;;1.83;0.43;;;;;;;13.61;100.00;100281.19;5051931;28;20070;-79
2023/07/18 08:09:38;;;;;;;4.45;0.30;;;;;;;13.61;100.00;100270.56;5070745;28;20397;-81
2023/07/18 08:12:04;;;;;;;1.90;0.30;;;;;;;13.66;100.00;100282.50;5057681;28;20040;-80
2023/07/18 08:14:32;;;;;;;2.38;0.43;;;;;;;13.68;100.00;100269.88;5060494;28;20029;-81
2023/07/18 08:16:58;;;;;;;2.28;0.45;;;;;;;13.69;100.00;100275.03;5065365;28;20028;-81
2023/07/18 08:19:24;;;;;;;1.15;0.30;;;;;;;13.71;100.00;100278.31;5058892;28;20036;-81
2023/07/18 08:21:50;;;;;;;1.08;0.30;;;;;;;13.71;100.00;100278.31;5061910;28;20059;-78
2023/07/18 08:24:17;;;;;;;2.50;0.30;;;;;;;13.73;100.00;100275.50;5047385;28;20490;-79
2023/07/18 08:26:43;;;;;;;1.70;0.30;;;;;;;13.75;100.00;100279.66;5043049;28;20132;-76
2023/07/18 08:29:09;;;;;;;1.10;0.30;;;;;;;13.77;100.00;100279.47;5065070;28;20055;-77
2023/07/18 08:31:35;;;;;;;2.30;0.43;;;;;;;13.78;100.00;100275.81;5057501;28;20029;-80
2023/07/18 08:34:00;;;;;;;1.00;0.30;;;;;;;13.84;100.00;100279.66;5051381;28;20465;-81
2023/07/18 08:36:27;;;;;;;2.28;0.40;;;;;;;13.86;100.00;100274.97;5086471;28;20059;-80
2023/07/18 08:38:53;;;;;;;1.33;0.40;;;;;;;13.90;100.00;100281.63;5041721;28;20124;-80
2023/07/18 08:41:22;;;;;;;1.80;0.30;;;;;;;13.92;100.00;100279.59;5070904;28;20029;-79
2023/07/18 08:43:49;;;;;;;1.00;0.30;;;;;;;13.97;100.00;100277.25;5043481;28;20071;-79
2023/07/18 08:46:15;;;;;;;3.22;0.50;;;;;;;14.02;100.00;100276.75;5046960;28;20025;-79
2023/07/18 08:48:43;;;;;;;2.70;0.45;;;;;;;14.06;100.00;100271.94;5045235;28;21267;-80
2023/07/18 08:51:10;;;;;;;0.50;0.35;;;;;;;14.05;100.00;100267.63;5060412;28;20021;-80
2023/07/18 08:53:36;;;;;;;0.93;0.40;;;;;;;14.03;100.00;100262.44;5042183;28;20174;-79
2023/07/18 08:56:03;;;;;;;2.20;0.40;;;;;;;14.05;100.00;100264.97;5076626;28;20016;-79
2023/07/18 08:58:28;;;;;;;3.75;0.60;;;;;;;14.06;100.00;100263.97;5050262;28;20072;-81
2023/07/18 09:00:54;;;;;;;1.65;0.47;;;;;;;14.07;100.00;100257.63;5060762;28;20036;-81
2023/07/18 09:03:20;;;;;;;1.85;0.40;;;;;;;14.09;100.00;100260.94;5050528;28;20032;-80
2023/07/18 09:05:46;;;;;;;2.47;0.38;;;;;;;14.06;100.00;100261.31;5035019;28;20484;-81
2023/07/18 09:08:12;;;;;;;1.77;0.32;;;;;;;14.11;100.00;100264.28;5080845;28;20060;-81
2023/07/18 09:10:38;;;;;;;2.85;0.30;;;;;;;14.10;100.00;100258.13;5032383;28;20145;-80
2023/07/18 09:13:06;;;;;;;1.70;0.40;;;;;;;14.14;100.00;100255.97;4991731;28;20645;-79
2023/07/18 09:15:34;;;;;;;2.05;0.63;;;;;;;14.17;100.00;100258.28;5053333;28;20070;-81
2023/07/18 09:18:02;;;;;;;1.48;0.40;;;;;;;14.17;100.00;100255.63;5067395;28;20166;-81
2023/07/18 09:20:30;;;;;;;4.00;0.40;;;;;;;14.18;100.00;100251.94;5059612;28;20607;-79
2023/07/18 09:22:57;;;;;;;1.70;0.50;;;;;;;14.24;100.00;100245.09;5031751;28;20047;-78
2023/07/18 09:25:24;;;;;;;0.70;0.38;;;;;;;14.26;100.00;100235.97;5035051;28;20032;-77
2023/07/18 09:27:51;;;;;;;1.15;0.43;;;;;;;14.31;100.00;100237.25;5047280;28;20558;-81
2023/07/18 09:30:23;;;;;;;3.78;0.45;;;;;;;14.35;100.00;100228.75;5051973;28;20131;-79
2023/07/18 09:32:53;;;;;;;3.78;0.70;;;;;;;14.38;100.00;100231.06;5030606;28;20032;-78
2023/07/18 09:35:18;;;;;;;2.20;0.50;;;;;;;14.44;100.00;100226.91;5046638;28;20090;-81
2023/07/18 09:37:47;;;;;;;2.05;0.57;;;;;;;14.50;100.00;100230.69;5030351;28;20029;-80
2023/07/18 09:40:15;;;;;;;2.47;0.45;;;;;;;14.61;100.00;100226.78;5034503;28;20028;-82
2023/07/18 09:42:46;;;;;;;2.13;0.50;;;;;;;14.68;100.00;100222.44;5046567;28;20047;-81
2023/07/18 09:45:13;;;;;;;2.80;0.68;;;;;;;14.72;100.00;100222.88;5037905;28;20108;-81
2023/07/18 09:47:43;;;;;;;4.43;0.50;;;;;;;14.76;100.00;100219.69;5036024;28;20370;-76
2023/07/18 09:50:12;;;;;;;1.20;0.40;;;;;;;14.80;100.00;100214.03;5065724;28;20033;-80
2023/07/18 09:52:51;;;;;;;3.38;0.93;;;;;;;14.87;100.00;100210.47;5048560;28;20032;-78
2023/07/18 09:55:30;;;;;;;2.70;0.40;;;;;;;14.95;100.00;100211.44;5031899;28;20416;-79
2023/07/18 09:57:58;;;;;;;1.40;0.25;;;;;;;14.96;100.00;100211.25;5008303;28;20468;-81
2023/07/18 10:00:25;;;;;;;2.67;0.30;;;;;;;15.07;100.00;100212.66;5054173;28;20048;-80
2023/07/18 10:02:54;;;;;;;2.35;0.30;;;;;;;15.20;100.00;100214.72;5031662;28;20049;-80
2023/07/18 10:05:20;;;;;;;1.10;0.20;;;;;;;15.32;100.00;100215.09;5028559;28;20040;-81
2023/07/18 10:07:46;;;;;;;0.80;0.22;;;;;;;15.42;100.00;100208.66;5050018;28;20037;-81
2023/07/18 10:10:13;;;;;;;2.45;0.30;;;;;;;15.53;100.00;100210.88;5079195;28;20041;-81
2023/07/18 10:12:59;;;;;;;0.43;0.20;;;;;;;15.53;100.00;100210.06;5057545;28;20112;-81
2023/07/18 10:15:26;;;;;;;1.13;0.13;;;;;;;15.58;100.00;100215.66;5063110;28;20052;-79
2023/07/18 10:17:52;;;;;;;0.30;0.20;;;;;;;15.61;100.00;100209.97;5050557;28;20044;-79
2023/07/18 10:20:19;;;;;;;0.20;0.10;;;;;;;15.69;100.00;100201.06;5023170;28;20033;-79
2023/07/18 10:22:50;;;;;;;4.68;0.35;;;;;;;15.78;100.00;100202.63;5042112;28;20481;-76
2023/07/18 10:25:19;;;;;;;0.88;0.13;;;;;;;15.84;100.00;100199.22;5085449;28;20028;-79
2023/07/18 10:27:46;;;;;;;0.90;0.45;;;;;;;15.89;100.00;100204.00;5059507;28;20033;-80
2023/07/18 10:30:15;;;;;;;1.50;0.10;;;;;;;15.98;100.00;100205.59;5037515;28;20123;-79
2023/07/18 10:32:42;;;;;;;0.98;0.10;;;;;;;16.10;100.00;100203.25;5087000;28;20499;-78
2023/07/18 10:35:10;;;;;;;0.77;0.20;;;;;;;16.21;100.00;100198.47;5051309;28;20040;-78
2023/07/18 10:37:37;;;;;;;0.95;0.10;;;;;;;16.26;100.00;100204.03;5044217;28;20396;-79
2023/07/18 10:40:08;;;;;;;1.55;0.10;;;;;;;16.42;100.00;100194.16;5047650;28;20036;-79
2023/07/18 10:42:35;;;;;;;0.30;0.10;;;;;;;16.45;100.00;100197.25;5075783;28;20079;-79
2023/07/18 10:45:06;;;;;;;0.55;0.10;;;;;;;16.56;100.00;100195.13;5042746;28;20677;-80
2023/07/18 10:47:37;;;;;;;0.57;0.00;;;;;;;16.55;100.00;100204.97;5050886;28;20091;-78
2023/07/18 10:50:06;;;;;;;0.10;0.00;;;;;;;16.56;100.00;100190.59;5026725;28;20032;-79
2023/07/18 10:52:32;;;;;;;0.63;0.17;;;;;;;16.54;100.00;100192.66;5006800;28;20406;-79
2023/07/18 10:55:00;;;;;;;2.70;0.30;;;;;;;16.62;100.00;100197.03;5005284;28;20047;-76
2023/07/18 10:57:34;;;;;;;0.55;0.10;;;;;;;16.72;100.00;100191.38;5060402;28;20058;-78
2023/07/18 11:00:04;;;;;;;0.60;0.03;;;;;;;16.69;100.00;100187.22;5073540;28;20096;-78
2023/07/18 11:02:44;;;;;;;0.25;0.10;;;;;;;16.79;100.00;100180.75;5048790;28;20469;-79
2023/07/18 11:05:12;;;;;;;0.20;0.10;;;;;;;16.76;100.00;100179.28;5034698;28;20033;-78
2023/07/18 11:07:43;;;;;;;0.52;0.10;;;;;;;16.83;100.00;100177.50;5058903;28;20041;-80
2023/07/18 11:10:10;;;;;;;0.65;0.10;;;;;;;16.88;100.00;100176.09;5037369;28;20159;-79
2023/07/18 11:12:37;;;;;;;1.00;0.20;;;;;;;17.00;100.00;100179.91;5032733;28;20444;-79
2023/07/18 11:15:06;;;;;;;0.45;0.10;;;;;;;17.13;100.00;100176.53;5056346;28;20456;-78
2023/07/18 11:17:31;;;;;;;1.25;0.10;;;;;;;17.23;100.00;100176.19;5050567;28;20032;-77
2023/07/18 11:19:58;;;;;;;0.95;0.10;;;;;;;17.34;100.00;100180.16;5048755;28;20123;-80